Time;durP1;ratioP1;P1;durP2;ratioP2;P2;SDS_P1;SDS_P2;PMS_P1;PMS_P2;Temp;Humidity;BMP_temperature;BMP_pressure;BME280_temperature;BME280_humidity;BME280_pressure;Samples;Min_cycle;Max_cycle;Signal;HPM_P1;HPM_P2
2023/07/19 00:09:57;;;;;;;15.40;4.38;;;;;;;;;;21089220;28;20062;-63
2023/07/19 00:19:58;;;;;;;13.30;4.47;;;;;;;;;;21087366;28;20550;-64
2023/07/19 00:29:59;;;;;;;21.38;5.20;;;;;;;;;;21087998;28;20558;-63
2023/07/19 00:40:00;;;;;;;18.05;4.93;;;;;;;;;;21086373;28;20084;-64
2023/07/19 00:50:03;;;;;;;13.32;4.40;;;;;;;;;;21086137;28;20050;-64
2023/07/19 01:00:05;;;;;;;18.70;4.47;;;;;;;;;;21085318;28;20052;-64
2023/07/19 01:10:06;;;;;;;15.80;4.45;;;;;;;;;;21084657;28;20076;-63
2023/07/19 01:20:08;;;;;;;15.80;4.55;;;;;;;;;;21083815;28;20047;-63
2023/07/19 01:30:09;;;;;;;14.10;4.20;;;;;;;;;;21083428;28;20047;-64
2023/07/19 01:40:11;;;;;;;16.42;4.07;;;;;;;;;;21081363;28;20063;-64
2023/07/19 01:50:12;;;;;;;12.57;4.28;;;;;;;;;;21082413;28;20558;-64
2023/07/19 02:00:14;;;;;;;15.10;3.60;;;;;;;;;;21080367;28;20055;-63
2023/07/19 02:10:15;;;;;;;15.55;4.65;;;;;;;;;;21079884;28;20051;-64
2023/07/19 02:20:19;;;;;;;13.50;4.05;;;;;;;;;;21081786;28;20127;-63
2023/07/19 02:30:20;;;;;;;13.27;4.03;;;;;;;;;;21097548;28;20052;-63
2023/07/19 02:40:21;;;;;;;14.00;4.38;;;;;;;;;;21096120;28;20055;-64
2023/07/19 02:50:22;;;;;;;15.95;4.10;;;;;;;;;;21096056;28;20044;-62
2023/07/19 03:00:24;;;;;;;16.38;4.40;;;;;;;;;;21095285;28;20040;-63
2023/07/19 03:10:25;;;;;;;12.35;4.43;;;;;;;;;;21094460;28;20044;-63
2023/07/19 03:20:27;;;;;;;16.08;5.07;;;;;;;;;;21093565;28;20079;-63
2023/07/19 03:30:29;;;;;;;13.75;5.22;;;;;;;;;;21092961;28;20055;-63
2023/07/19 03:40:30;;;;;;;16.25;4.07;;;;;;;;;;21091243;28;20052;-64
2023/07/19 03:50:31;;;;;;;12.73;4.18;;;;;;;;;;21091133;28;20051;-63
2023/07/19 04:00:32;;;;;;;13.98;4.50;;;;;;;;;;21089033;28;20040;-63
2023/07/19 04:10:34;;;;;;;13.40;3.92;;;;;;;;;;21089571;28;20101;-64
2023/07/19 04:20:36;;;;;;;13.80;5.43;;;;;;;;;;21087299;28;20048;-64
2023/07/19 04:30:37;;;;;;;11.00;4.22;;;;;;;;;;21088206;28;20390;-64
2023/07/19 04:40:38;;;;;;;13.68;3.92;;;;;;;;;;21087396;28;20058;-63
2023/07/19 04:50:40;;;;;;;14.07;3.88;;;;;;;;;;21084623;28;20083;-64
2023/07/19 05:00:41;;;;;;;13.23;4.22;;;;;;;;;;21085459;28;20052;-63
2023/07/19 05:10:42;;;;;;;12.27;4.20;;;;;;;;;;21084895;28;20063;-63
2023/07/19 05:20:43;;;;;;;12.52;4.35;;;;;;;;;;21083910;28;20040;-63
2023/07/19 05:30:44;;;;;;;17.38;4.10;;;;;;;;;;21083113;28;20123;-63
2023/07/19 05:40:45;;;;;;;16.05;4.53;;;;;;;;;;21081352;28;20074;-62
2023/07/19 05:50:46;;;;;;;12.73;3.90;;;;;;;;;;21080297;28;20044;-63
2023/07/19 06:00:48;;;;;;;9.55;3.60;;;;;;;;;;21079801;28;20046;-63
2023/07/19 06:10:51;;;;;;;9.80;4.18;;;;;;;;;;21080481;28;20048;-62
2023/07/19 06:20:52;;;;;;;14.63;3.65;;;;;;;;;;21080037;28;20120;-64
2023/07/19 06:30:53;;;;;;;14.85;4.60;;;;;;;;;;21078659;28;20056;-64
2023/07/19 06:41:00;;;;;;;13.20;3.40;;;;;;;;;;21078759;28;20086;-63
2023/07/19 06:51:02;;;;;;;11.93;3.55;;;;;;;;;;21080429;28;20548;-64
2023/07/19 07:01:04;;;;;;;20.42;4.30;;;;;;;;;;21078564;28;20052;-63
2023/07/19 07:11:05;;;;;;;14.63;3.72;;;;;;;;;;21085454;28;20086;-63
2023/07/19 07:21:06;;;;;;;12.65;3.67;;;;;;;;;;21093068;28;20444;-63
2023/07/19 07:31:09;;;;;;;13.50;3.47;;;;;;;;;;21091183;28;20084;-65
2023/07/19 07:41:12;;;;;;;11.52;4.30;;;;;;;;;;21090188;28;20059;-64
2023/07/19 07:51:13;;;;;;;15.20;3.65;;;;;;;;;;21090405;28;20055;-69
2023/07/19 08:01:14;;;;;;;11.43;4.15;;;;;;;;;;21089246;28;20416;-66
2023/07/19 08:11:15;;;;;;;7.85;3.58;;;;;;;;;;21089251;28;20044;-63
2023/07/19 08:21:16;;;;;;;13.57;4.15;;;;;;;;;;21087258;28;20044;-59
2023/07/19 08:31:18;;;;;;;7.63;3.53;;;;;;;;;;21087146;28;20086;-58
2023/07/19 08:41:22;;;;;;;11.65;4.68;;;;;;;;;;21085350;28;20059;-67
2023/07/19 08:51:24;;;;;;;13.13;3.88;;;;;;;;;;21075637;28;20491;-67
2023/07/19 09:01:25;;;;;;;16.70;4.30;;;;;;;;;;21069320;28;20485;-61
2023/07/19 09:11:26;;;;;;;12.43;5.88;;;;;;;;;;21083382;28;20040;-62
2023/07/19 09:21:34;;;;;;;12.20;4.63;;;;;;;;;;21082766;28;20124;-64
2023/07/19 09:31:49;;;;;;;13.25;3.90;;;;;;;;;;21082986;28;20052;-66
2023/07/19 09:41:51;;;;;;;30.55;4.90;;;;;;;;;;21081728;28;20048;-69
2023/07/19 09:51:52;;;;;;;11.98;4.07;;;;;;;;;;21080218;28;20062;-62
2023/07/19 10:01:53;;;;;;;14.93;4.93;;;;;;;;;;21079263;28;20044;-68
2023/07/19 10:11:58;;;;;;;15.15;4.25;;;;;;;;;;21079571;28;20043;-59
2023/07/19 10:22:06;;;;;;;20.08;5.18;;;;;;;;;;21075516;28;20040;-64
2023/07/19 10:32:08;;;;;;;18.90;4.50;;;;;;;;;;21077974;28;20419;-64
2023/07/19 10:42:09;;;;;;;13.95;4.47;;;;;;;;;;21070987;28;20044;-63
2023/07/19 10:52:10;;;;;;;15.02;4.43;;;;;;;;;;21088299;28;20047;-64
2023/07/19 11:02:12;;;;;;;18.02;4.57;;;;;;;;;;21084197;28;20085;-63
2023/07/19 11:12:13;;;;;;;13.07;4.47;;;;;;;;;;21089378;28;20092;-63
2023/07/19 11:22:20;;;;;;;16.25;4.70;;;;;;;;;;21091781;28;20123;-63
2023/07/19 11:32:23;;;;;;;17.00;4.40;;;;;;;;;;21091132;28;20052;-64
2023/07/19 11:42:39;;;;;;;15.13;4.63;;;;;;;;;;21089592;28;20052;-63
2023/07/19 11:52:54;;;;;;;19.45;4.97;;;;;;;;;;21088303;28;20051;-64
2023/07/19 12:02:55;;;;;;;22.00;5.38;;;;;;;;;;21088359;28;20040;-63
2023/07/19 12:12:57;;;;;;;21.30;4.65;;;;;;;;;;21089044;28;20043;-62
2023/07/19 12:22:58;;;;;;;23.65;5.18;;;;;;;;;;21087918;28;20051;-61
2023/07/19 12:33:01;;;;;;;26.58;5.55;;;;;;;;;;21086188;28;20040;-62
2023/07/19 12:43:02;;;;;;;22.90;5.32;;;;;;;;;;21085692;28;20051;-61
2023/07/19 12:53:04;;;;;;;20.02;5.68;;;;;;;;;;21084707;28;20036;-62
2023/07/19 13:03:05;;;;;;;20.73;4.90;;;;;;;;;;21085494;28;20044;-62
2023/07/19 13:13:06;;;;;;;21.00;4.40;;;;;;;;;;21082865;28;20055;-61
2023/07/19 13:23:07;;;;;;;36.45;5.25;;;;;;;;;;21081859;28;20040;-61
2023/07/19 13:33:09;;;;;;;30.52;6.95;;;;;;;;;;21082456;28;20436;-61
2023/07/19 13:43:10;;;;;;;33.47;7.30;;;;;;;;;;21080531;28;20056;-61
2023/07/19 13:53:11;;;;;;;25.48;5.63;;;;;;;;;;21081342;28;20048;-60
2023/07/19 14:03:14;;;;;;;27.45;6.60;;;;;;;;;;21080858;28;20546;-61
2023/07/19 14:13:16;;;;;;;31.40;7.25;;;;;;;;;;21080754;28;20470;-61
2023/07/19 14:23:17;;;;;;;31.50;6.68;;;;;;;;;;21079020;28;20490;-61
2023/07/19 14:33:19;;;;;;;33.55;6.97;;;;;;;;;;21078909;28;20059;-62
2023/07/19 14:43:24;;;;;;;30.77;8.07;;;;;;;;;;21078829;28;20059;-61
2023/07/19 14:53:25;;;;;;;31.55;6.68;;;;;;;;;;21078383;28;20097;-61
2023/07/19 15:03:26;;;;;;;27.90;6.35;;;;;;;;;;21076835;28;20052;-61
2023/07/19 15:13:27;;;;;;;32.92;7.90;;;;;;;;;;21077759;28;20401;-61
2023/07/19 15:23:31;;;;;;;35.67;8.30;;;;;;;;;;21077659;28;20539;-61
2023/07/19 15:33:33;;;;;;;32.20;8.13;;;;;;;;;;21087667;28;20404;-62
2023/07/19 15:43:35;;;;;;;29.90;7.15;;;;;;;;;;21091266;28;20060;-62
2023/07/19 15:53:36;;;;;;;34.65;7.13;;;;;;;;;;21090873;28;20485;-63
2023/07/19 16:03:39;;;;;;;31.35;7.35;;;;;;;;;;21090139;28;20392;-63
2023/07/19 16:13:40;;;;;;;27.93;6.37;;;;;;;;;;21088975;28;20047;-62
2023/07/19 16:23:41;;;;;;;26.60;6.40;;;;;;;;;;21088710;28;20044;-62
2023/07/19 16:33:42;;;;;;;31.30;5.93;;;;;;;;;;21087643;28;20044;-63
2023/07/19 16:43:44;;;;;;;28.85;7.60;;;;;;;;;;21085364;28;20417;-64
2023/07/19 16:53:46;;;;;;;27.85;5.78;;;;;;;;;;21086331;28;20047;-63
2023/07/19 17:03:47;;;;;;;21.15;5.30;;;;;;;;;;21085054;28;20537;-65
2023/07/19 17:13:48;;;;;;;27.90;6.68;;;;;;;;;;21083111;28;20101;-63
2023/07/19 17:23:50;;;;;;;29.02;6.15;;;;;;;;;;21083670;28;20040;-62
2023/07/19 17:33:51;;;;;;;25.23;5.45;;;;;;;;;;21083109;28;20052;-63
2023/07/19 17:43:53;;;;;;;30.13;6.75;;;;;;;;;;21082744;28;20056;-62
2023/07/19 17:53:54;;;;;;;18.85;5.28;;;;;;;;;;21080612;28;20232;-63
2023/07/19 18:03:55;;;;;;;17.63;5.03;;;;;;;;;;21081410;28;20044;-62
2023/07/19 18:13:56;;;;;;;22.33;5.43;;;;;;;;;;21081034;28;20458;-63
2023/07/19 18:23:57;;;;;;;19.90;5.00;;;;;;;;;;21079683;28;20494;-63
2023/07/19 18:33:59;;;;;;;18.70;4.53;;;;;;;;;;21078539;28;20106;-63
2023/07/19 18:44:00;;;;;;;18.95;4.28;;;;;;;;;;21077313;28;20056;-62
2023/07/19 18:54:01;;;;;;;17.23;4.50;;;;;;;;;;21072136;28;20085;-62
2023/07/19 19:04:02;;;;;;;15.82;4.47;;;;;;;;;;21074649;28;20048;-62
2023/07/19 19:14:03;;;;;;;17.38;4.38;;;;;;;;;;21084803;28;20056;-63
2023/07/19 19:24:05;;;;;;;19.05;5.20;;;;;;;;;;21092727;28;20085;-62
2023/07/19 19:34:07;;;;;;;17.50;4.28;;;;;;;;;;21092349;28;20056;-62
2023/07/19 19:44:08;;;;;;;16.02;4.90;;;;;;;;;;21090647;28;20123;-62
2023/07/19 19:54:09;;;;;;;16.77;4.53;;;;;;;;;;21088808;28;20055;-62
2023/07/19 20:04:10;;;;;;;14.80;4.82;;;;;;;;;;21090040;28;20040;-62
2023/07/19 20:14:11;;;;;;;15.30;4.93;;;;;;;;;;21088045;28;20044;-63
2023/07/19 20:24:13;;;;;;;19.33;4.47;;;;;;;;;;21088520;28;20047;-63
2023/07/19 20:34:14;;;;;;;24.80;5.03;;;;;;;;;;21087762;28;20043;-63
2023/07/19 20:44:15;;;;;;;18.10;4.65;;;;;;;;;;21085949;28;20052;-63
2023/07/19 20:54:17;;;;;;;18.13;4.65;;;;;;;;;;21085277;28;20040;-60
2023/07/19 21:04:19;;;;;;;20.65;5.38;;;;;;;;;;21084394;28;20047;-60
2023/07/19 21:14:21;;;;;;;20.33;5.50;;;;;;;;;;21085427;28;20047;-61
2023/07/19 21:24:23;;;;;;;17.95;5.07;;;;;;;;;;21083083;28;20039;-61
2023/07/19 21:34:24;;;;;;;16.23;4.90;;;;;;;;;;21082980;28;20188;-61
2023/07/19 21:44:25;;;;;;;17.63;5.65;;;;;;;;;;21082974;28;20136;-61
2023/07/19 21:54:26;;;;;;;16.00;4.78;;;;;;;;;;21081633;28;20162;-60
2023/07/19 22:04:27;;;;;;;20.23;4.53;;;;;;;;;;21080977;28;20048;-61
2023/07/19 22:14:28;;;;;;;15.23;4.63;;;;;;;;;;21080484;28;20047;-61
2023/07/19 22:24:29;;;;;;;11.77;4.00;;;;;;;;;;21079666;28;20127;-60
2023/07/19 22:34:30;;;;;;;16.95;5.45;;;;;;;;;;21078519;28;20052;-60
2023/07/19 22:44:31;;;;;;;13.43;4.68;;;;;;;;;;21093729;28;20052;-60
2023/07/19 22:54:32;;;;;;;15.23;5.38;;;;;;;;;;21094713;28;20150;-60
2023/07/19 23:04:33;;;;;;;13.75;4.95;;;;;;;;;;21094895;28;20085;-60
2023/07/19 23:14:35;;;;;;;18.02;5.32;;;;;;;;;;21094479;28;20039;-60
2023/07/19 23:24:36;;;;;;;20.35;5.18;;;;;;;;;;21092311;28;20408;-61
2023/07/19 23:34:37;;;;;;;19.52;5.35;;;;;;;;;;21093025;28;20461;-64
2023/07/19 23:44:39;;;;;;;23.58;6.53;;;;;;;;;;21090529;28;20078;-60
2023/07/19 23:54:40;;;;;;;16.40;4.50;;;;;;;;;;21091223;28;20505;-60
